sensor_id;sensor_type;location;lat;lon;timestamp;temperature;humidity
52895;DHT22;38759;53.396;6.722;2023-12-20T00:01:36;5.50;99.90
52895;DHT22;38759;53.396;6.722;2023-12-20T00:04:05;5.50;99.90
52895;DHT22;38759;53.396;6.722;2023-12-20T00:06:31;5.50;99.90
52895;DHT22;38759;53.396;6.722;2023-12-20T00:08:56;5.60;99.90
52895;DHT22;38759;53.396;6.722;2023-12-20T00:11:23;5.50;99.90
52895;DHT22;38759;53.396;6.722;2023-12-20T00:13:49;5.60;99.90
52895;DHT22;38759;53.396;6.722;2023-12-20T00:16:15;5.50;99.90
52895;DHT22;38759;53.396;6.722;2023-12-20T00:18:40;5.50;99.90
52895;DHT22;38759;53.396;6.722;2023-12-20T00:21:06;5.50;99.90
52895;DHT22;38759;53.396;6.722;2023-12-20T00:23:32;5.50;99.90
52895;DHT22;38759;53.396;6.722;2023-12-20T00:25:57;5.50;99.90
52895;DHT22;38759;53.396;6.722;2023-12-20T00:28:23;5.80;99.90
52895;DHT22;38759;53.396;6.722;2023-12-20T00:30:49;5.50;99.90
52895;DHT22;38759;53.396;6.722;2023-12-20T00:33:14;5.50;99.90
52895;DHT22;38759;53.396;6.722;2023-12-20T00:35:40;5.70;99.90
52895;DHT22;38759;53.396;6.722;2023-12-20T00:38:06;5.50;99.90
52895;DHT22;38759;53.396;6.722;2023-12-20T00:40:34;5.50;99.90
52895;DHT22;38759;53.396;6.722;2023-12-20T00:43:00;5.70;99.90
52895;DHT22;38759;53.396;6.722;2023-12-20T00:45:25;5.50;99.90
52895;DHT22;38759;53.396;6.722;2023-12-20T00:47:51;5.40;99.90
52895;DHT22;38759;53.396;6.722;2023-12-20T00:50:17;5.50;99.90
52895;DHT22;38759;53.396;6.722;2023-12-20T00:52:43;5.40;99.90
52895;DHT22;38759;53.396;6.722;2023-12-20T00:55:08;5.40;99.90
52895;DHT22;38759;53.396;6.722;2023-12-20T00:57:34;5.40;99.90
52895;DHT22;38759;53.396;6.722;2023-12-20T01:00:00;5.40;99.90
52895;DHT22;38759;53.396;6.722;2023-12-20T01:02:26;5.50;99.90
52895;DHT22;38759;53.396;6.722;2023-12-20T01:04:52;5.50;99.90
52895;DHT22;38759;53.396;6.722;2023-12-20T01:07:17;5.50;99.90
52895;DHT22;38759;53.396;6.722;2023-12-20T01:09:43;5.50;99.90
52895;DHT22;38759;53.396;6.722;2023-12-20T01:12:09;5.60;99.90
52895;DHT22;38759;53.396;6.722;2023-12-20T01:14:34;5.60;99.90
52895;DHT22;38759;53.396;6.722;2023-12-20T01:17:01;5.60;99.90
52895;DHT22;38759;53.396;6.722;2023-12-20T01:19:26;5.60;99.90
52895;DHT22;38759;53.396;6.722;2023-12-20T01:21:53;5.60;99.90
52895;DHT22;38759;53.396;6.722;2023-12-20T01:24:19;5.60;99.90
52895;DHT22;38759;53.396;6.722;2023-12-20T01:26:45;5.90;99.90
52895;DHT22;38759;53.396;6.722;2023-12-20T01:29:10;6.00;99.90
52895;DHT22;38759;53.396;6.722;2023-12-20T01:31:36;5.60;99.90
52895;DHT22;38759;53.396;6.722;2023-12-20T01:34:03;5.40;99.90
52895;DHT22;38759;53.396;6.722;2023-12-20T01:36:29;5.50;99.90
52895;DHT22;38759;53.396;6.722;2023-12-20T01:38:55;5.50;99.90
52895;DHT22;38759;53.396;6.722;2023-12-20T01:43:46;5.50;99.90
52895;DHT22;38759;53.396;6.722;2023-12-20T01:46:12;5.50;99.90
52895;DHT22;38759;53.396;6.722;2023-12-20T01:48:38;5.90;99.90
52895;DHT22;38759;53.396;6.722;2023-12-20T01:51:04;5.60;99.90
52895;DHT22;38759;53.396;6.722;2023-12-20T01:53:30;5.50;99.90
52895;DHT22;38759;53.396;6.722;2023-12-20T01:55:58;5.60;99.90
52895;DHT22;38759;53.396;6.722;2023-12-20T01:58:24;5.60;99.90
52895;DHT22;38759;53.396;6.722;2023-12-20T02:00:51;5.80;99.90
52895;DHT22;38759;53.396;6.722;2023-12-20T02:03:16;5.70;99.90
52895;DHT22;38759;53.396;6.722;2023-12-20T02:05:44;5.40;99.90
52895;DHT22;38759;53.396;6.722;2023-12-20T02:08:11;5.60;99.90
52895;DHT22;38759;53.396;6.722;2023-12-20T02:10:36;5.50;99.90
52895;DHT22;38759;53.396;6.722;2023-12-20T02:13:03;5.50;99.90
52895;DHT22;38759;53.396;6.722;2023-12-20T02:15:29;5.50;99.90
52895;DHT22;38759;53.396;6.722;2023-12-20T02:17:55;5.60;99.90
52895;DHT22;38759;53.396;6.722;2023-12-20T02:20:21;5.60;99.90
52895;DHT22;38759;53.396;6.722;2023-12-20T02:22:47;6.10;99.90
52895;DHT22;38759;53.396;6.722;2023-12-20T02:25:12;5.60;99.90
52895;DHT22;38759;53.396;6.722;2023-12-20T02:27:39;5.60;99.90
52895;DHT22;38759;53.396;6.722;2023-12-20T02:30:06;5.60;99.90
52895;DHT22;38759;53.396;6.722;2023-12-20T02:32:32;5.60;99.90
52895;DHT22;38759;53.396;6.722;2023-12-20T02:34:58;5.60;99.90
52895;DHT22;38759;53.396;6.722;2023-12-20T02:37:23;5.60;99.90
52895;DHT22;38759;53.396;6.722;2023-12-20T02:39:49;5.60;99.90
52895;DHT22;38759;53.396;6.722;2023-12-20T02:42:15;5.70;99.90
52895;DHT22;38759;53.396;6.722;2023-12-20T02:44:40;5.70;99.90
52895;DHT22;38759;53.396;6.722;2023-12-20T02:47:06;5.70;99.90
52895;DHT22;38759;53.396;6.722;2023-12-20T02:49:32;5.70;99.90
52895;DHT22;38759;53.396;6.722;2023-12-20T02:51:57;5.70;99.90
52895;DHT22;38759;53.396;6.722;2023-12-20T02:54:24;5.80;99.90
52895;DHT22;38759;53.396;6.722;2023-12-20T02:56:49;5.70;99.90
52895;DHT22;38759;53.396;6.722;2023-12-20T02:59:15;5.80;99.90
52895;DHT22;38759;53.396;6.722;2023-12-20T03:01:45;5.90;99.90
52895;DHT22;38759;53.396;6.722;2023-12-20T03:04:11;6.10;99.90
52895;DHT22;38759;53.396;6.722;2023-12-20T03:06:37;5.90;99.90
52895;DHT22;38759;53.396;6.722;2023-12-20T03:09:03;5.90;99.90
52895;DHT22;38759;53.396;6.722;2023-12-20T03:11:30;5.90;99.90
52895;DHT22;38759;53.396;6.722;2023-12-20T03:13:56;5.90;99.90
52895;DHT22;38759;53.396;6.722;2023-12-20T03:16:22;6.10;99.90
52895;DHT22;38759;53.396;6.722;2023-12-20T03:18:48;5.90;99.90
52895;DHT22;38759;53.396;6.722;2023-12-20T03:21:14;5.70;99.90
52895;DHT22;38759;53.396;6.722;2023-12-20T03:23:40;6.00;99.90
52895;DHT22;38759;53.396;6.722;2023-12-20T03:26:09;6.00;99.90
52895;DHT22;38759;53.396;6.722;2023-12-20T03:28:36;6.00;99.90
52895;DHT22;38759;53.396;6.722;2023-12-20T03:31:02;6.10;99.90
52895;DHT22;38759;53.396;6.722;2023-12-20T03:33:28;6.00;99.90
52895;DHT22;38759;53.396;6.722;2023-12-20T03:35:54;6.00;99.90
52895;DHT22;38759;53.396;6.722;2023-12-20T03:38:20;6.00;99.90
52895;DHT22;38759;53.396;6.722;2023-12-20T03:40:46;6.00;99.90
52895;DHT22;38759;53.396;6.722;2023-12-20T03:43:12;6.00;99.90
52895;DHT22;38759;53.396;6.722;2023-12-20T03:45:37;6.00;99.90
52895;DHT22;38759;53.396;6.722;2023-12-20T03:48:04;6.40;99.90
52895;DHT22;38759;53.396;6.722;2023-12-20T03:50:29;6.00;99.90
52895;DHT22;38759;53.396;6.722;2023-12-20T03:52:55;6.00;99.90
52895;DHT22;38759;53.396;6.722;2023-12-20T03:55:21;6.00;99.90
52895;DHT22;38759;53.396;6.722;2023-12-20T03:57:47;6.00;99.90
52895;DHT22;38759;53.396;6.722;2023-12-20T04:00:12;6.00;99.90
52895;DHT22;38759;53.396;6.722;2023-12-20T04:02:42;6.00;99.90
52895;DHT22;38759;53.396;6.722;2023-12-20T04:05:08;6.00;99.90
52895;DHT22;38759;53.396;6.722;2023-12-20T04:07:35;6.20;99.90
52895;DHT22;38759;53.396;6.722;2023-12-20T04:10:01;6.10;99.90
52895;DHT22;38759;53.396;6.722;2023-12-20T04:12:30;6.30;99.90
52895;DHT22;38759;53.396;6.722;2023-12-20T04:14:56;6.10;99.90
52895;DHT22;38759;53.396;6.722;2023-12-20T04:17:22;6.20;99.90
52895;DHT22;38759;53.396;6.722;2023-12-20T04:19:51;6.10;99.90
52895;DHT22;38759;53.396;6.722;2023-12-20T04:22:18;6.40;99.90
52895;DHT22;38759;53.396;6.722;2023-12-20T04:24:44;6.40;99.90
52895;DHT22;38759;53.396;6.722;2023-12-20T04:27:10;6.20;99.90
52895;DHT22;38759;53.396;6.722;2023-12-20T04:29:36;6.10;99.90
52895;DHT22;38759;53.396;6.722;2023-12-20T04:32:05;6.10;99.90
52895;DHT22;38759;53.396;6.722;2023-12-20T04:34:31;6.20;99.90
52895;DHT22;38759;53.396;6.722;2023-12-20T04:36:56;6.30;99.90
52895;DHT22;38759;53.396;6.722;2023-12-20T04:39:22;6.30;99.90
52895;DHT22;38759;53.396;6.722;2023-12-20T04:41:48;6.30;99.90
52895;DHT22;38759;53.396;6.722;2023-12-20T04:44:14;6.30;99.90
52895;DHT22;38759;53.396;6.722;2023-12-20T04:46:39;6.30;99.90
52895;DHT22;38759;53.396;6.722;2023-12-20T04:49:05;6.40;99.90
52895;DHT22;38759;53.396;6.722;2023-12-20T04:51:33;6.40;99.90
52895;DHT22;38759;53.396;6.722;2023-12-20T04:54:02;6.40;99.90
52895;DHT22;38759;53.396;6.722;2023-12-20T04:56:28;6.40;99.90
52895;DHT22;38759;53.396;6.722;2023-12-20T04:58:53;6.50;99.90
52895;DHT22;38759;53.396;6.722;2023-12-20T05:01:19;6.50;99.90
52895;DHT22;38759;53.396;6.722;2023-12-20T05:03:50;6.50;99.90
52895;DHT22;38759;53.396;6.722;2023-12-20T05:06:16;6.50;99.90
52895;DHT22;38759;53.396;6.722;2023-12-20T05:08:41;6.50;99.90
52895;DHT22;38759;53.396;6.722;2023-12-20T05:11:07;6.50;99.90
52895;DHT22;38759;53.396;6.722;2023-12-20T05:13:35;6.50;99.90
52895;DHT22;38759;53.396;6.722;2023-12-20T05:16:00;6.60;99.90
52895;DHT22;38759;53.396;6.722;2023-12-20T05:18:26;6.60;99.90
52895;DHT22;38759;53.396;6.722;2023-12-20T05:20:52;6.60;99.90
52895;DHT22;38759;53.396;6.722;2023-12-20T05:23:18;6.60;99.90
52895;DHT22;38759;53.396;6.722;2023-12-20T05:25:43;6.60;99.90
52895;DHT22;38759;53.396;6.722;2023-12-20T05:28:09;6.60;99.90
52895;DHT22;38759;53.396;6.722;2023-12-20T05:30:35;6.60;99.90
52895;DHT22;38759;53.396;6.722;2023-12-20T05:33:01;6.70;99.90
52895;DHT22;38759;53.396;6.722;2023-12-20T05:35:26;6.70;99.90
52895;DHT22;38759;53.396;6.722;2023-12-20T05:37:52;6.80;99.90
52895;DHT22;38759;53.396;6.722;2023-12-20T05:40:18;7.10;99.90
52895;DHT22;38759;53.396;6.722;2023-12-20T05:42:44;6.80;99.90
52895;DHT22;38759;53.396;6.722;2023-12-20T05:45:09;6.90;99.90
52895;DHT22;38759;53.396;6.722;2023-12-20T05:47:36;6.80;99.90
52895;DHT22;38759;53.396;6.722;2023-12-20T05:50:02;6.90;99.90
52895;DHT22;38759;53.396;6.722;2023-12-20T05:52:27;6.80;99.90
52895;DHT22;38759;53.396;6.722;2023-12-20T05:54:53;6.80;99.90
52895;DHT22;38759;53.396;6.722;2023-12-20T05:57:19;6.90;99.90
52895;DHT22;38759;53.396;6.722;2023-12-20T05:59:45;6.80;99.90
52895;DHT22;38759;53.396;6.722;2023-12-20T06:02:11;7.00;99.90
52895;DHT22;38759;53.396;6.722;2023-12-20T06:04:36;6.80;99.90
52895;DHT22;38759;53.396;6.722;2023-12-20T06:07:02;6.90;99.90
52895;DHT22;38759;53.396;6.722;2023-12-20T06:09:28;6.80;99.90
52895;DHT22;38759;53.396;6.722;2023-12-20T06:11:57;6.80;99.90
52895;DHT22;38759;53.396;6.722;2023-12-20T06:14:23;6.80;99.90
52895;DHT22;38759;53.396;6.722;2023-12-20T06:16:49;6.90;99.90
52895;DHT22;38759;53.396;6.722;2023-12-20T06:19:15;6.80;99.90
52895;DHT22;38759;53.396;6.722;2023-12-20T06:21:41;7.40;99.90
52895;DHT22;38759;53.396;6.722;2023-12-20T06:24:06;6.90;99.90
52895;DHT22;38759;53.396;6.722;2023-12-20T06:26:32;6.90;99.90
52895;DHT22;38759;53.396;6.722;2023-12-20T06:28:58;6.90;99.90
52895;DHT22;38759;53.396;6.722;2023-12-20T06:31:23;6.90;99.90
52895;DHT22;38759;53.396;6.722;2023-12-20T06:33:49;6.90;99.90
52895;DHT22;38759;53.396;6.722;2023-12-20T06:36:31;7.10;99.90
52895;DHT22;38759;53.396;6.722;2023-12-20T06:38:57;6.90;99.90
52895;DHT22;38759;53.396;6.722;2023-12-20T06:41:23;7.10;99.90
52895;DHT22;38759;53.396;6.722;2023-12-20T06:43:50;6.90;99.90
52895;DHT22;38759;53.396;6.722;2023-12-20T06:46:16;7.10;99.90
52895;DHT22;38759;53.396;6.722;2023-12-20T06:48:42;7.00;99.90
52895;DHT22;38759;53.396;6.722;2023-12-20T06:51:12;7.00;99.90
52895;DHT22;38759;53.396;6.722;2023-12-20T06:53:38;7.00;99.90
52895;DHT22;38759;53.396;6.722;2023-12-20T06:56:04;7.00;99.90
52895;DHT22;38759;53.396;6.722;2023-12-20T06:58:29;7.10;99.90
52895;DHT22;38759;53.396;6.722;2023-12-20T07:00:58;7.20;99.90
52895;DHT22;38759;53.396;6.722;2023-12-20T07:03:23;7.20;99.90
52895;DHT22;38759;53.396;6.722;2023-12-20T07:05:49;7.20;99.90
52895;DHT22;38759;53.396;6.722;2023-12-20T07:08:15;7.10;99.90
52895;DHT22;38759;53.396;6.722;2023-12-20T07:10:41;7.40;99.90
52895;DHT22;38759;53.396;6.722;2023-12-20T07:13:07;7.20;99.90
52895;DHT22;38759;53.396;6.722;2023-12-20T07:15:33;7.40;99.90
52895;DHT22;38759;53.396;6.722;2023-12-20T07:17:59;7.20;99.90
52895;DHT22;38759;53.396;6.722;2023-12-20T07:20:26;7.20;99.90
52895;DHT22;38759;53.396;6.722;2023-12-20T07:22:53;7.20;99.90
52895;DHT22;38759;53.396;6.722;2023-12-20T07:25:19;7.20;99.90
52895;DHT22;38759;53.396;6.722;2023-12-20T07:27:46;7.30;99.90
52895;DHT22;38759;53.396;6.722;2023-12-20T07:30:12;7.30;99.90
52895;DHT22;38759;53.396;6.722;2023-12-20T07:32:37;7.30;99.90
52895;DHT22;38759;53.396;6.722;2023-12-20T07:35:03;7.50;99.90
52895;DHT22;38759;53.396;6.722;2023-12-20T07:37:29;7.30;99.90
52895;DHT22;38759;53.396;6.722;2023-12-20T07:39:54;7.30;99.90
52895;DHT22;38759;53.396;6.722;2023-12-20T07:42:20;7.50;99.90
52895;DHT22;38759;53.396;6.722;2023-12-20T07:44:47;7.30;99.90
52895;DHT22;38759;53.396;6.722;2023-12-20T07:47:13;7.40;99.90
52895;DHT22;38759;53.396;6.722;2023-12-20T07:49:42;7.30;99.90
52895;DHT22;38759;53.396;6.722;2023-12-20T07:52:09;7.30;99.90
52895;DHT22;38759;53.396;6.722;2023-12-20T07:54:35;7.20;99.90
52895;DHT22;38759;53.396;6.722;2023-12-20T07:57:00;7.20;99.90
52895;DHT22;38759;53.396;6.722;2023-12-20T07:59:26;7.30;99.90
52895;DHT22;38759;53.396;6.722;2023-12-20T08:01:52;7.40;99.90
52895;DHT22;38759;53.396;6.722;2023-12-20T08:04:17;7.20;99.90
52895;DHT22;38759;53.396;6.722;2023-12-20T08:06:43;7.30;99.90
52895;DHT22;38759;53.396;6.722;2023-12-20T08:09:09;7.40;99.90
52895;DHT22;38759;53.396;6.722;2023-12-20T08:11:35;7.60;99.90
52895;DHT22;38759;53.396;6.722;2023-12-20T08:14:01;7.40;99.90
52895;DHT22;38759;53.396;6.722;2023-12-20T08:16:27;7.50;99.90
52895;DHT22;38759;53.396;6.722;2023-12-20T08:18:52;7.30;99.90
52895;DHT22;38759;53.396;6.722;2023-12-20T08:23:46;7.00;99.90
52895;DHT22;38759;53.396;6.722;2023-12-20T08:26:13;6.90;99.90
52895;DHT22;38759;53.396;6.722;2023-12-20T08:28:38;6.50;99.90
52895;DHT22;38759;53.396;6.722;2023-12-20T08:31:04;6.20;99.90
52895;DHT22;38759;53.396;6.722;2023-12-20T08:33:30;6.10;99.90
52895;DHT22;38759;53.396;6.722;2023-12-20T08:35:55;5.90;99.90
52895;DHT22;38759;53.396;6.722;2023-12-20T08:38:21;5.90;99.90
52895;DHT22;38759;53.396;6.722;2023-12-20T08:40:47;6.00;99.90
52895;DHT22;38759;53.396;6.722;2023-12-20T08:43:14;5.80;99.90
52895;DHT22;38759;53.396;6.722;2023-12-20T08:45:39;5.80;99.90
52895;DHT22;38759;53.396;6.722;2023-12-20T08:48:05;5.80;99.90
52895;DHT22;38759;53.396;6.722;2023-12-20T08:52:57;5.70;99.90
52895;DHT22;38759;53.396;6.722;2023-12-20T08:55:23;5.80;99.90
52895;DHT22;38759;53.396;6.722;2023-12-20T08:57:49;5.80;99.90
52895;DHT22;38759;53.396;6.722;2023-12-20T09:00:16;5.80;99.90
52895;DHT22;38759;53.396;6.722;2023-12-20T09:02:42;5.60;99.90
52895;DHT22;38759;53.396;6.722;2023-12-20T09:05:07;5.60;99.90
52895;DHT22;38759;53.396;6.722;2023-12-20T09:07:33;5.80;99.90
52895;DHT22;38759;53.396;6.722;2023-12-20T09:09:59;5.50;99.90
52895;DHT22;38759;53.396;6.722;2023-12-20T09:12:25;5.50;99.90
52895;DHT22;38759;53.396;6.722;2023-12-20T09:14:51;5.50;99.90
52895;DHT22;38759;53.396;6.722;2023-12-20T09:17:18;5.60;99.90
52895;DHT22;38759;53.396;6.722;2023-12-20T09:19:44;5.60;99.90
52895;DHT22;38759;53.396;6.722;2023-12-20T09:22:10;5.50;99.90
52895;DHT22;38759;53.396;6.722;2023-12-20T09:24:36;5.60;99.90
52895;DHT22;38759;53.396;6.722;2023-12-20T09:27:02;5.60;99.90
52895;DHT22;38759;53.396;6.722;2023-12-20T09:29:28;5.60;99.90
52895;DHT22;38759;53.396;6.722;2023-12-20T09:31:54;5.60;99.90
52895;DHT22;38759;53.396;6.722;2023-12-20T09:34:20;5.70;99.90
52895;DHT22;38759;53.396;6.722;2023-12-20T09:36:49;5.70;99.90
52895;DHT22;38759;53.396;6.722;2023-12-20T09:39:17;5.80;99.90
52895;DHT22;38759;53.396;6.722;2023-12-20T09:42:02;5.80;99.90
52895;DHT22;38759;53.396;6.722;2023-12-20T09:44:34;6.00;99.90
52895;DHT22;38759;53.396;6.722;2023-12-20T09:47:06;6.10;99.90
52895;DHT22;38759;53.396;6.722;2023-12-20T09:49:33;6.10;99.90
52895;DHT22;38759;53.396;6.722;2023-12-20T09:52:00;6.50;99.90
52895;DHT22;38759;53.396;6.722;2023-12-20T09:54:27;6.30;99.90
52895;DHT22;38759;53.396;6.722;2023-12-20T09:56:54;6.50;99.90
52895;DHT22;38759;53.396;6.722;2023-12-20T09:59:19;6.90;99.90
52895;DHT22;38759;53.396;6.722;2023-12-20T10:01:45;6.30;99.90
52895;DHT22;38759;53.396;6.722;2023-12-20T10:04:12;6.30;99.90
52895;DHT22;38759;53.396;6.722;2023-12-20T10:06:42;6.40;99.90
52895;DHT22;38759;53.396;6.722;2023-12-20T10:09:09;6.50;99.90
52895;DHT22;38759;53.396;6.722;2023-12-20T10:11:39;6.50;99.90
52895;DHT22;38759;53.396;6.722;2023-12-20T10:14:06;6.50;99.90
52895;DHT22;38759;53.396;6.722;2023-12-20T10:16:32;6.60;99.90
52895;DHT22;38759;53.396;6.722;2023-12-20T10:19:00;6.60;99.90
52895;DHT22;38759;53.396;6.722;2023-12-20T10:21:29;6.60;99.90
52895;DHT22;38759;53.396;6.722;2023-12-20T10:23:56;6.60;99.90
52895;DHT22;38759;53.396;6.722;2023-12-20T10:26:23;6.60;99.90
52895;DHT22;38759;53.396;6.722;2023-12-20T10:28:59;6.60;99.90
52895;DHT22;38759;53.396;6.722;2023-12-20T10:31:34;6.70;99.90
52895;DHT22;38759;53.396;6.722;2023-12-20T10:34:01;6.60;99.90
52895;DHT22;38759;53.396;6.722;2023-12-20T10:36:30;6.70;99.90
52895;DHT22;38759;53.396;6.722;2023-12-20T10:38:56;6.80;99.90
52895;DHT22;38759;53.396;6.722;2023-12-20T10:41:31;6.60;99.90
52895;DHT22;38759;53.396;6.722;2023-12-20T10:44:02;6.60;99.90
52895;DHT22;38759;53.396;6.722;2023-12-20T10:46:30;6.60;99.90
52895;DHT22;38759;53.396;6.722;2023-12-20T10:48:56;6.70;99.90
52895;DHT22;38759;53.396;6.722;2023-12-20T10:51:23;6.90;99.90
52895;DHT22;38759;53.396;6.722;2023-12-20T10:53:51;6.90;99.90
52895;DHT22;38759;53.396;6.722;2023-12-20T10:56:18;6.90;99.90
52895;DHT22;38759;53.396;6.722;2023-12-20T10:58:45;6.90;99.90
52895;DHT22;38759;53.396;6.722;2023-12-20T11:01:13;7.30;99.90
52895;DHT22;38759;53.396;6.722;2023-12-20T11:03:52;7.30;99.90
52895;DHT22;38759;53.396;6.722;2023-12-20T11:06:35;7.10;99.90
52895;DHT22;38759;53.396;6.722;2023-12-20T11:09:19;7.10;99.90
52895;DHT22;38759;53.396;6.722;2023-12-20T11:15:07;7.10;99.90
52895;DHT22;38759;53.396;6.722;2023-12-20T11:17:33;7.30;99.90
52895;DHT22;38759;53.396;6.722;2023-12-20T11:22:29;7.40;99.90
52895;DHT22;38759;53.396;6.722;2023-12-20T11:25:05;7.40;99.90
52895;DHT22;38759;53.396;6.722;2023-12-20T11:27:42;7.50;99.90
52895;DHT22;38759;53.396;6.722;2023-12-20T11:30:09;7.40;99.90
52895;DHT22;38759;53.396;6.722;2023-12-20T11:32:36;7.40;99.90
52895;DHT22;38759;53.396;6.722;2023-12-20T11:37:37;7.50;99.90
52895;DHT22;38759;53.396;6.722;2023-12-20T11:40:06;7.50;99.90
52895;DHT22;38759;53.396;6.722;2023-12-20T11:42:45;7.60;99.90
52895;DHT22;38759;53.396;6.722;2023-12-20T11:45:19;7.60;99.90
52895;DHT22;38759;53.396;6.722;2023-12-20T11:47:48;7.70;99.90
52895;DHT22;38759;53.396;6.722;2023-12-20T11:50:18;7.60;99.90
52895;DHT22;38759;53.396;6.722;2023-12-20T11:52:44;7.50;99.90
52895;DHT22;38759;53.396;6.722;2023-12-20T11:55:10;7.50;99.90
52895;DHT22;38759;53.396;6.722;2023-12-20T11:57:36;7.40;99.90
52895;DHT22;38759;53.396;6.722;2023-12-20T12:00:03;7.40;99.90
52895;DHT22;38759;53.396;6.722;2023-12-20T12:02:30;7.30;99.90
52895;DHT22;38759;53.396;6.722;2023-12-20T12:04:55;7.30;99.90
52895;DHT22;38759;53.396;6.722;2023-12-20T12:07:29;7.30;99.90
52895;DHT22;38759;53.396;6.722;2023-12-20T12:09:54;7.30;99.90
52895;DHT22;38759;53.396;6.722;2023-12-20T12:12:20;7.30;99.90
52895;DHT22;38759;53.396;6.722;2023-12-20T12:14:46;7.20;99.90
52895;DHT22;38759;53.396;6.722;2023-12-20T12:17:12;7.10;99.90
52895;DHT22;38759;53.396;6.722;2023-12-20T12:19:39;7.20;99.90
52895;DHT22;38759;53.396;6.722;2023-12-20T12:22:07;7.20;99.90
52895;DHT22;38759;53.396;6.722;2023-12-20T12:24:34;7.20;99.90
52895;DHT22;38759;53.396;6.722;2023-12-20T12:27:00;7.20;99.90
52895;DHT22;38759;53.396;6.722;2023-12-20T12:29:26;7.10;99.90
52895;DHT22;38759;53.396;6.722;2023-12-20T12:31:51;7.10;99.90
52895;DHT22;38759;53.396;6.722;2023-12-20T12:34:17;7.20;99.90
52895;DHT22;38759;53.396;6.722;2023-12-20T12:36:43;7.20;99.90
52895;DHT22;38759;53.396;6.722;2023-12-20T12:39:12;7.30;99.90
52895;DHT22;38759;53.396;6.722;2023-12-20T12:41:41;7.10;99.90
52895;DHT22;38759;53.396;6.722;2023-12-20T12:44:06;7.10;99.90
52895;DHT22;38759;53.396;6.722;2023-12-20T12:46:32;7.00;99.90
52895;DHT22;38759;53.396;6.722;2023-12-20T12:48:58;7.10;99.90
52895;DHT22;38759;53.396;6.722;2023-12-20T12:51:24;7.10;99.90
52895;DHT22;38759;53.396;6.722;2023-12-20T12:53:49;7.00;99.90
52895;DHT22;38759;53.396;6.722;2023-12-20T12:56:15;7.20;99.90
52895;DHT22;38759;53.396;6.722;2023-12-20T12:58:41;7.00;99.90
52895;DHT22;38759;53.396;6.722;2023-12-20T13:01:07;6.90;99.90
52895;DHT22;38759;53.396;6.722;2023-12-20T13:03:32;7.00;99.90
52895;DHT22;38759;53.396;6.722;2023-12-20T13:05:59;7.00;99.90
52895;DHT22;38759;53.396;6.722;2023-12-20T13:08:25;7.00;99.90
52895;DHT22;38759;53.396;6.722;2023-12-20T13:10:51;6.90;99.90
52895;DHT22;38759;53.396;6.722;2023-12-20T13:13:17;7.00;99.90
52895;DHT22;38759;53.396;6.722;2023-12-20T13:15:43;7.00;99.90
52895;DHT22;38759;53.396;6.722;2023-12-20T13:18:16;6.90;99.90
52895;DHT22;38759;53.396;6.722;2023-12-20T13:20:42;7.00;99.90
52895;DHT22;38759;53.396;6.722;2023-12-20T13:23:08;7.10;99.90
52895;DHT22;38759;53.396;6.722;2023-12-20T13:25:33;7.10;99.90
52895;DHT22;38759;53.396;6.722;2023-12-20T13:27:59;7.20;99.90
52895;DHT22;38759;53.396;6.722;2023-12-20T13:30:25;7.20;99.90
52895;DHT22;38759;53.396;6.722;2023-12-20T13:32:51;7.20;99.90
52895;DHT22;38759;53.396;6.722;2023-12-20T13:35:17;7.20;99.90
52895;DHT22;38759;53.396;6.722;2023-12-20T13:37:42;7.20;99.90
52895;DHT22;38759;53.396;6.722;2023-12-20T13:40:10;7.20;99.90
52895;DHT22;38759;53.396;6.722;2023-12-20T13:42:36;7.20;99.90
52895;DHT22;38759;53.396;6.722;2023-12-20T13:45:01;7.10;99.90
52895;DHT22;38759;53.396;6.722;2023-12-20T13:47:27;7.10;99.90
52895;DHT22;38759;53.396;6.722;2023-12-20T13:49:53;7.20;99.90
52895;DHT22;38759;53.396;6.722;2023-12-20T13:52:18;7.10;99.90
52895;DHT22;38759;53.396;6.722;2023-12-20T13:54:44;7.10;99.90
52895;DHT22;38759;53.396;6.722;2023-12-20T13:57:09;7.00;99.90
52895;DHT22;38759;53.396;6.722;2023-12-20T13:59:35;7.00;99.90
52895;DHT22;38759;53.396;6.722;2023-12-20T14:02:01;7.10;99.90
52895;DHT22;38759;53.396;6.722;2023-12-20T14:04:29;6.90;99.90
52895;DHT22;38759;53.396;6.722;2023-12-20T14:06:54;6.90;99.90
52895;DHT22;38759;53.396;6.722;2023-12-20T14:09:20;7.00;99.90
52895;DHT22;38759;53.396;6.722;2023-12-20T14:11:46;6.90;99.90
52895;DHT22;38759;53.396;6.722;2023-12-20T14:14:12;6.90;99.90
52895;DHT22;38759;53.396;6.722;2023-12-20T14:16:37;7.10;99.90
52895;DHT22;38759;53.396;6.722;2023-12-20T14:19:03;6.90;99.90
52895;DHT22;38759;53.396;6.722;2023-12-20T14:21:34;6.80;99.90
52895;DHT22;38759;53.396;6.722;2023-12-20T14:24:00;6.80;99.90
52895;DHT22;38759;53.396;6.722;2023-12-20T14:26:26;6.80;99.90
52895;DHT22;38759;53.396;6.722;2023-12-20T14:28:53;6.70;99.90
52895;DHT22;38759;53.396;6.722;2023-12-20T14:31:19;6.60;99.90
52895;DHT22;38759;53.396;6.722;2023-12-20T14:33:45;6.50;99.90
52895;DHT22;38759;53.396;6.722;2023-12-20T14:36:11;6.40;99.90
52895;DHT22;38759;53.396;6.722;2023-12-20T14:38:37;6.40;99.90
52895;DHT22;38759;53.396;6.722;2023-12-20T14:41:03;6.20;99.90
52895;DHT22;38759;53.396;6.722;2023-12-20T14:43:31;6.20;99.90
52895;DHT22;38759;53.396;6.722;2023-12-20T14:45:56;6.10;99.90
52895;DHT22;38759;53.396;6.722;2023-12-20T14:48:22;6.10;99.90
52895;DHT22;38759;53.396;6.722;2023-12-20T14:50:48;6.00;99.90
52895;DHT22;38759;53.396;6.722;2023-12-20T14:53:15;6.00;99.90
52895;DHT22;38759;53.396;6.722;2023-12-20T14:55:42;6.20;99.90
52895;DHT22;38759;53.396;6.722;2023-12-20T14:58:12;6.00;99.90
52895;DHT22;38759;53.396;6.722;2023-12-20T15:00:37;5.90;99.90
52895;DHT22;38759;53.396;6.722;2023-12-20T15:03:03;5.90;99.90
52895;DHT22;38759;53.396;6.722;2023-12-20T15:05:30;5.90;99.90
52895;DHT22;38759;53.396;6.722;2023-12-20T15:07:56;5.80;99.90
52895;DHT22;38759;53.396;6.722;2023-12-20T15:10:22;5.80;99.90
52895;DHT22;38759;53.396;6.722;2023-12-20T15:12:48;5.80;99.90
52895;DHT22;38759;53.396;6.722;2023-12-20T15:15:13;5.80;99.90
52895;DHT22;38759;53.396;6.722;2023-12-20T15:17:40;5.80;99.90
52895;DHT22;38759;53.396;6.722;2023-12-20T15:20:06;5.80;99.90
52895;DHT22;38759;53.396;6.722;2023-12-20T15:22:31;5.80;99.90
52895;DHT22;38759;53.396;6.722;2023-12-20T15:24:59;5.70;99.90
52895;DHT22;38759;53.396;6.722;2023-12-20T15:27:26;5.80;99.90
52895;DHT22;38759;53.396;6.722;2023-12-20T15:29:52;5.80;99.90
52895;DHT22;38759;53.396;6.722;2023-12-20T15:32:18;5.90;99.90
52895;DHT22;38759;53.396;6.722;2023-12-20T15:34:46;5.90;99.90
52895;DHT22;38759;53.396;6.722;2023-12-20T15:37:12;5.90;99.90
52895;DHT22;38759;53.396;6.722;2023-12-20T15:39:37;5.90;99.90
52895;DHT22;38759;53.396;6.722;2023-12-20T15:42:03;5.90;99.90
52895;DHT22;38759;53.396;6.722;2023-12-20T15:44:29;6.00;99.90
52895;DHT22;38759;53.396;6.722;2023-12-20T15:46:55;6.00;99.90
52895;DHT22;38759;53.396;6.722;2023-12-20T15:49:20;6.10;99.90
52895;DHT22;38759;53.396;6.722;2023-12-20T15:51:46;6.00;99.90
52895;DHT22;38759;53.396;6.722;2023-12-20T15:54:12;6.00;99.90
52895;DHT22;38759;53.396;6.722;2023-12-20T15:56:38;6.00;99.90